createdAt,value
2019-02-23T00:01:13.464Z,64.90
2019-02-23T00:03:43.002Z,67.12
2019-02-23T00:06:12.587Z,70.12
2019-02-23T00:08:42.731Z,60.10
2019-02-23T00:11:12.403Z,67.53
2019-02-23T00:13:41.965Z,71.75
2019-02-23T00:16:12.436Z,68.47
2019-02-23T00:18:41.971Z,70.75
2019-02-23T00:21:12.011Z,78.28
2019-02-23T00:23:42.959Z,98.12
2019-02-23T00:26:12.563Z,104.10
2019-02-23T00:28:42.260Z,82.70
2019-02-23T00:31:12.092Z,79.20
2019-02-23T00:33:42.004Z,70.37
2019-02-23T00:36:12.253Z,70.67
2019-02-23T00:38:42.131Z,61.50
2019-02-23T00:41:11.931Z,57.30
2019-02-23T00:43:42.336Z,58.60
2019-02-23T00:46:11.936Z,60.63
2019-02-23T00:48:41.806Z,61.53
2019-02-23T00:51:11.745Z,57.43
2019-02-23T00:53:42.862Z,53.92
2019-02-23T00:56:12.473Z,73.57
2019-02-23T00:58:42.028Z,75.90
2019-02-23T01:01:11.629Z,85.50
2019-02-23T01:03:41.564Z,77.25
2019-02-23T01:06:11.645Z,76.00
2019-02-23T01:08:41.434Z,79.00
2019-02-23T01:11:11.456Z,113.95
2019-02-23T01:13:41.529Z,159.20
2019-02-23T01:16:11.576Z,152.75
2019-02-23T01:18:42.087Z,150.10
2019-02-23T01:21:11.656Z,118.90
2019-02-23T01:23:41.850Z,92.85
2019-02-23T01:26:11.396Z,91.85
2019-02-23T01:28:41.327Z,86.10
2019-02-23T01:31:11.551Z,88.70
2019-02-23T01:33:41.088Z,86.25
2019-02-23T01:36:11.203Z,86.45
2019-02-23T01:38:41.031Z,82.02
2019-02-23T01:41:11.011Z,85.40
2019-02-23T01:43:41.163Z,84.30
2019-02-23T01:46:11.087Z,80.75
2019-02-23T01:48:40.751Z,88.62
2019-02-23T01:51:10.839Z,87.27
2019-02-23T01:53:40.738Z,83.42
2019-02-23T01:56:10.831Z,81.35
2019-02-23T01:58:40.755Z,83.07
2019-02-23T02:01:11.259Z,85.47
2019-02-23T02:03:40.788Z,80.67
2019-02-23T02:06:10.867Z,89.28
2019-02-23T02:08:41.040Z,89.40
2019-02-23T02:11:10.641Z,84.03
2019-02-23T02:13:40.463Z,85.15
2019-02-23T02:16:10.415Z,84.40
2019-02-23T02:18:40.287Z,77.90
2019-02-23T02:21:10.544Z,77.30
2019-02-23T02:23:40.442Z,77.27
2019-02-23T02:26:10.416Z,74.35
2019-02-23T02:28:40.250Z,73.92
2019-02-23T02:31:10.489Z,74.62
2019-02-23T02:34:05.534Z,77.62
2019-02-23T02:36:35.551Z,71.35
2019-02-23T02:39:10.564Z,66.95
2019-02-23T02:41:40.240Z,77.95
2019-02-23T02:44:10.113Z,72.85
2019-02-23T02:46:39.975Z,72.92
2019-02-23T02:49:10.082Z,73.67
2019-02-23T02:51:39.937Z,69.70
2019-02-23T02:54:09.948Z,73.50
2019-02-23T02:56:39.842Z,70.42
2019-02-23T02:59:09.732Z,72.00
2019-02-23T03:01:39.679Z,76.40
2019-02-23T03:04:09.666Z,80.40
2019-02-23T03:06:39.521Z,79.15
2019-02-23T03:09:11.565Z,76.82
2019-02-23T03:11:41.186Z,76.47
2019-02-23T03:14:10.772Z,78.17
2019-02-23T03:16:40.419Z,82.02
2019-02-23T03:19:10.027Z,84.90
2019-02-23T03:21:39.665Z,81.95
2019-02-23T03:24:09.366Z,83.17
2019-02-23T03:26:39.245Z,84.70
2019-02-23T03:29:09.469Z,82.62
2019-02-23T03:31:39.137Z,85.92
2019-02-23T03:34:09.214Z,75.78
2019-02-23T03:36:39.103Z,81.53
2019-02-23T03:39:09.060Z,78.17
2019-02-23T03:41:38.971Z,84.65
2019-02-23T03:44:08.979Z,90.12
2019-02-23T03:46:39.116Z,86.65
2019-02-23T03:49:09.547Z,84.17
2019-02-23T03:51:39.154Z,88.45
2019-02-23T03:54:08.874Z,88.97
2019-02-23T03:56:38.785Z,78.90
2019-02-23T03:59:08.732Z,82.65
2019-02-23T04:01:38.658Z,88.22
2019-02-23T04:04:08.597Z,89.07
2019-02-23T04:06:38.526Z,85.57
2019-02-23T04:09:08.748Z,82.33
2019-02-23T04:11:38.626Z,83.22
2019-02-23T04:14:08.227Z,80.42
2019-02-23T04:16:37.832Z,84.50
2019-02-23T04:19:07.360Z,76.77
2019-02-23T04:21:36.959Z,77.20
2019-02-23T04:24:06.519Z,62.95
2019-02-23T04:26:36.119Z,71.47
2019-02-23T04:29:05.720Z,79.42
2019-02-23T04:31:36.102Z,71.12
2019-02-23T04:34:05.784Z,72.32
2019-02-23T04:36:35.391Z,71.10
2019-02-23T04:39:07.094Z,78.20
2019-02-23T04:41:36.707Z,76.15
2019-02-23T04:44:06.498Z,74.72
2019-02-23T04:46:36.052Z,72.42
2019-02-23T04:49:05.711Z,77.37
2019-02-23T04:51:35.323Z,80.72
2019-02-23T04:54:05.663Z,81.82
2019-02-23T04:56:35.198Z,76.37
2019-02-23T04:59:06.224Z,78.97
2019-02-23T05:01:38.480Z,71.35
2019-02-23T05:04:08.510Z,81.72
2019-02-23T05:06:38.523Z,83.95
2019-02-23T05:09:08.476Z,76.82
2019-02-23T05:11:38.388Z,77.58
2019-02-23T05:14:08.276Z,80.25
2019-02-23T05:16:38.210Z,79.10
2019-02-23T05:19:08.220Z,85.53
2019-02-23T05:21:38.405Z,83.90
2019-02-23T05:24:08.289Z,80.83
2019-02-23T05:26:38.167Z,90.42
2019-02-23T05:29:08.067Z,89.22
2019-02-23T05:31:38.012Z,93.42
2019-02-23T05:34:08.339Z,83.40
2019-02-23T05:36:37.874Z,82.62
2019-02-23T05:39:08.076Z,92.17
2019-02-23T05:41:37.802Z,88.60
2019-02-23T05:44:07.876Z,89.83
2019-02-23T05:46:37.763Z,88.27
2019-02-23T05:49:07.706Z,85.40
2019-02-23T05:51:38.854Z,91.12
2019-02-23T05:54:08.927Z,85.15
2019-02-23T05:56:38.456Z,86.65
2019-02-23T05:59:07.988Z,90.32
2019-02-23T06:01:37.761Z,92.40
2019-02-23T06:04:07.764Z,86.90
2019-02-23T06:06:37.292Z,94.75
2019-02-23T06:09:07.488Z,91.65
2019-02-23T06:11:37.095Z,98.42
2019-02-23T06:14:06.632Z,88.37
2019-02-23T06:16:36.339Z,101.62
2019-02-23T06:19:05.947Z,97.45
2019-02-23T06:21:35.631Z,99.07
2019-02-23T06:24:05.191Z,92.27
2019-02-23T06:26:34.806Z,101.62
2019-02-23T06:29:04.472Z,91.60
2019-02-23T06:31:34.033Z,93.92
2019-02-23T06:34:12.518Z,94.45
2019-02-23T06:36:35.401Z,100.60
2019-02-23T06:39:05.797Z,107.35
2019-02-23T06:41:35.369Z,103.07
2019-02-23T06:44:05.429Z,101.18
2019-02-23T06:46:35.067Z,107.90
2019-02-23T06:49:04.749Z,112.75
2019-02-23T06:51:34.288Z,115.57
2019-02-23T06:54:04.361Z,120.75
2019-02-23T06:56:34.043Z,130.72
2019-02-23T06:59:03.791Z,134.93
2019-02-23T07:01:33.560Z,142.18
2019-02-23T07:04:03.111Z,137.35
2019-02-23T07:06:32.696Z,140.88
2019-02-23T07:09:02.771Z,127.85
2019-02-23T07:11:32.664Z,143.75
2019-02-23T07:14:02.707Z,129.50
2019-02-23T07:16:32.799Z,138.28
2019-02-23T07:19:02.544Z,150.07
2019-02-23T07:21:32.456Z,132.70
2019-02-23T07:24:02.812Z,140.35
2019-02-23T07:26:32.565Z,141.10
2019-02-23T07:29:02.385Z,135.55
2019-02-23T07:31:32.429Z,132.32
2019-02-23T07:34:02.341Z,132.93
2019-02-23T07:36:32.256Z,132.20
2019-02-23T07:39:02.206Z,132.40
2019-02-23T07:41:32.140Z,136.32
2019-02-23T07:44:03.455Z,129.90
2019-02-23T07:46:33.943Z,142.22
2019-02-23T07:49:03.552Z,142.70
2019-02-23T07:51:33.159Z,136.05
2019-02-23T07:54:02.743Z,140.92
2019-02-23T07:56:32.676Z,137.32
2019-02-23T07:59:03.774Z,129.87
2019-02-23T08:01:34.143Z,138.00
2019-02-23T08:04:03.747Z,126.97
2019-02-23T08:06:33.299Z,135.25
2019-02-23T08:09:03.016Z,130.63
2019-02-23T08:11:32.715Z,123.62
2019-02-23T08:14:02.329Z,130.45
2019-02-23T08:16:31.955Z,131.78
2019-02-23T08:19:01.747Z,123.85
2019-02-23T08:21:35.311Z,126.72
2019-02-23T08:24:05.432Z,129.03
2019-02-23T08:26:35.037Z,133.25
2019-02-23T08:29:04.655Z,110.65
2019-02-23T08:31:34.219Z,119.65
2019-02-23T08:34:04.367Z,115.62
2019-02-23T08:36:33.907Z,107.32
2019-02-23T08:39:03.814Z,112.15
2019-02-23T08:41:33.427Z,102.15
2019-02-23T08:44:03.106Z,106.07
2019-02-23T08:46:33.347Z,102.27
2019-02-23T08:49:02.959Z,107.05
2019-02-23T08:51:33.336Z,103.15
2019-02-23T08:54:03.276Z,100.30
2019-02-23T08:56:34.138Z,97.80
2019-02-23T08:59:03.733Z,97.82
2019-02-23T09:01:34.562Z,93.10
2019-02-23T09:04:04.231Z,93.75
2019-02-23T09:06:33.831Z,92.78
2019-02-23T09:09:04.773Z,91.40
2019-02-23T09:11:53.963Z,90.65
2019-02-23T09:14:23.538Z,93.90
2019-02-23T09:16:53.920Z,81.70
2019-02-23T09:19:23.528Z,83.12
2019-02-23T09:21:53.747Z,86.60
2019-02-23T09:24:23.824Z,90.87
2019-02-23T09:26:53.955Z,85.53
2019-02-23T09:29:23.822Z,87.90
2019-02-23T09:31:53.838Z,82.35
2019-02-23T09:34:23.989Z,86.28
2019-02-23T09:36:54.071Z,74.60
2019-02-23T09:39:23.907Z,72.55
2019-02-23T09:41:53.816Z,70.45
2019-02-23T09:44:24.344Z,71.02
2019-02-23T09:46:53.955Z,69.80
2019-02-23T09:49:23.672Z,68.12
2019-02-23T09:51:53.904Z,68.02
2019-02-23T09:54:24.377Z,71.57
2019-02-23T09:56:53.916Z,69.03
2019-02-23T09:59:23.556Z,66.07
2019-02-23T10:01:53.543Z,66.80
2019-02-23T10:04:23.440Z,68.22
2019-02-23T10:06:53.469Z,64.72
2019-02-23T10:09:23.326Z,63.52
2019-02-23T10:11:53.415Z,70.22
2019-02-23T10:14:23.678Z,63.65
2019-02-23T10:16:53.317Z,57.88
2019-02-23T10:19:23.471Z,67.00
2019-02-23T10:21:53.421Z,66.07
2019-02-23T10:24:23.400Z,63.02
2019-02-23T10:26:53.379Z,62.13
2019-02-23T10:29:23.332Z,70.15
2019-02-23T10:31:53.172Z,66.87
2019-02-23T10:34:23.399Z,66.55
2019-02-23T10:36:53.108Z,65.70
2019-02-23T10:39:23.601Z,63.60
2019-02-23T10:41:53.379Z,65.50
2019-02-23T10:44:22.939Z,68.62
2019-02-23T10:46:52.767Z,70.67
2019-02-23T10:49:22.383Z,68.25
2019-02-23T10:51:52.160Z,67.27
2019-02-23T10:54:21.939Z,70.03
2019-02-23T10:56:51.480Z,66.15
2019-02-23T10:59:21.496Z,70.03
2019-02-23T11:01:55.556Z,68.90
2019-02-23T11:04:25.547Z,68.87
2019-02-23T11:06:55.963Z,65.42
2019-02-23T11:09:45.179Z,64.87
2019-02-23T11:12:22.351Z,62.75
2019-02-23T11:15:12.178Z,65.60
2019-02-23T11:17:52.567Z,65.87
2019-02-23T11:20:40.360Z,61.35
2019-02-23T11:23:28.298Z,60.28
2019-02-23T11:26:15.911Z,62.88
2019-02-23T11:29:03.637Z,65.78
2019-02-23T11:31:33.180Z,59.00
2019-02-23T11:34:03.156Z,61.80
2019-02-23T11:36:47.664Z,60.25
2019-02-23T11:39:22.779Z,57.90
2019-02-23T11:41:59.951Z,63.50
2019-02-23T11:44:33.079Z,57.17
2019-02-23T11:47:22.335Z,57.33
2019-02-23T11:50:01.832Z,62.67
2019-02-23T11:52:32.299Z,57.13
2019-02-23T11:55:11.500Z,53.92
2019-02-23T11:57:47.493Z,64.42
2019-02-23T12:00:17.104Z,60.67
2019-02-23T12:02:52.392Z,63.42
2019-02-23T12:05:17.913Z,53.25
2019-02-23T12:07:47.763Z,53.48
2019-02-23T12:10:17.822Z,51.75
2019-02-23T12:12:47.565Z,55.78
2019-02-23T12:15:17.238Z,55.75
2019-02-23T12:17:46.847Z,56.85
2019-02-23T12:20:16.935Z,58.02
2019-02-23T12:22:46.472Z,58.87
2019-02-23T12:25:16.436Z,57.73
2019-02-23T12:27:46.843Z,62.73
2019-02-23T12:30:16.465Z,65.67
2019-02-23T12:32:46.212Z,63.02
2019-02-23T12:35:16.700Z,64.25
2019-02-23T12:37:46.304Z,60.50
2019-02-23T12:40:15.979Z,61.42
2019-02-23T12:42:45.716Z,66.45
2019-02-23T12:45:15.992Z,71.35
2019-02-23T12:47:45.724Z,65.10
2019-02-23T12:50:15.435Z,65.95
2019-02-23T12:52:44.967Z,62.70
2019-02-23T12:55:14.797Z,61.25
2019-02-23T12:57:44.954Z,64.75
2019-02-23T13:00:17.029Z,66.02
2019-02-23T13:02:48.052Z,58.98
2019-02-23T13:05:18.130Z,56.48
2019-02-23T13:07:48.739Z,62.53
2019-02-23T13:10:18.283Z,60.98
2019-02-23T13:13:15.304Z,61.18
2019-02-23T13:15:59.292Z,62.20
2019-02-23T13:18:42.076Z,57.38
2019-02-23T13:21:23.803Z,58.63
2019-02-23T13:24:06.312Z,59.38
2019-02-23T13:26:54.141Z,56.45
2019-02-23T13:29:50.920Z,56.63
2019-02-23T13:32:38.514Z,57.15
2019-02-23T13:35:30.907Z,54.90
2019-02-23T13:38:25.911Z,54.00
2019-02-23T13:41:02.425Z,55.80
2019-02-23T13:43:55.868Z,57.03
2019-02-23T13:46:37.723Z,60.28
2019-02-23T13:49:28.649Z,57.45
2019-02-23T13:52:02.782Z,58.02
2019-02-23T13:55:00.893Z,53.30
2019-02-23T13:57:38.642Z,53.38
2019-02-23T14:00:23.836Z,49.25
2019-02-23T14:03:17.424Z,50.10
2019-02-23T14:06:05.061Z,48.75
2019-02-23T14:08:46.804Z,50.12
2019-02-23T14:11:31.516Z,53.65
2019-02-23T14:14:16.511Z,50.00
2019-02-23T14:16:55.076Z,50.45
2019-02-23T14:19:30.434Z,53.60
2019-02-23T14:22:03.050Z,49.63
2019-02-23T14:24:57.280Z,49.10
2019-02-23T14:27:36.159Z,52.62
2019-02-23T14:30:36.408Z,52.83
2019-02-23T14:33:27.687Z,53.63
2019-02-23T14:36:17.232Z,49.70
2019-02-23T14:38:52.357Z,53.10
2019-02-23T14:41:43.225Z,48.50
2019-02-23T14:44:16.439Z,49.08
2019-02-23T14:46:57.975Z,51.42
2019-02-23T14:49:34.317Z,48.05
2019-02-23T14:52:10.030Z,50.88
2019-02-23T14:55:18.887Z,52.62
2019-02-23T15:01:52.243Z,56.08
2019-02-23T15:04:33.355Z,62.05
2019-02-23T15:07:38.908Z,56.55
2019-02-23T15:10:23.578Z,57.30
2019-02-23T15:13:14.542Z,59.80
2019-02-23T15:15:56.463Z,62.60
2019-02-23T15:18:38.351Z,59.85
2019-02-23T15:21:19.807Z,55.28
2019-02-23T15:24:07.688Z,60.73
2019-02-23T15:26:42.968Z,54.88
2019-02-23T15:29:32.730Z,49.42
2019-02-23T15:32:11.491Z,46.77
2019-02-23T15:34:53.195Z,52.05
2019-02-23T15:37:37.681Z,49.42
2019-02-23T15:40:29.976Z,48.78
2019-02-23T15:43:27.979Z,47.50
2019-02-23T15:46:13.205Z,42.75
2019-02-23T15:49:19.492Z,46.77
2019-02-23T15:51:50.012Z,41.98
2019-02-23T15:54:20.192Z,41.58
2019-02-23T15:56:50.119Z,45.60
2019-02-23T15:59:19.763Z,45.08
2019-02-23T16:01:49.563Z,48.60
2019-02-23T16:04:19.804Z,45.92
2019-02-23T16:06:49.547Z,46.42
2019-02-23T16:09:19.603Z,44.40
2019-02-23T16:11:49.286Z,45.03
2019-02-23T16:14:18.989Z,47.27
2019-02-23T16:16:49.659Z,46.83
2019-02-23T16:19:19.268Z,46.02
2019-02-23T16:21:48.901Z,49.40
2019-02-23T16:24:18.520Z,49.80
2019-02-23T16:26:48.141Z,48.13
2019-02-23T16:29:17.787Z,49.13
2019-02-23T16:31:47.602Z,47.73
2019-02-23T16:34:17.146Z,53.00
2019-02-23T16:36:47.471Z,64.75
2019-02-23T16:39:17.131Z,67.03
2019-02-23T16:41:46.877Z,68.85
2019-02-23T16:44:17.089Z,56.83
2019-02-23T16:46:46.796Z,72.65
2019-02-23T16:49:16.407Z,88.22
2019-02-23T16:51:46.056Z,66.65
2019-02-23T16:54:15.777Z,65.30
2019-02-23T16:56:45.765Z,85.40
2019-02-23T16:59:15.332Z,112.52
2019-02-23T17:01:45.057Z,65.45
2019-02-23T17:04:14.883Z,63.70
2019-02-23T17:06:44.860Z,70.10
2019-02-23T17:09:14.778Z,64.40
2019-02-23T17:11:44.702Z,67.10
2019-02-23T17:14:14.631Z,62.05
2019-02-23T17:16:45.458Z,71.85
2019-02-23T17:19:15.059Z,70.83
2019-02-23T17:21:44.662Z,75.87
2019-02-23T17:24:14.472Z,76.72
2019-02-23T17:26:44.655Z,68.35
2019-02-23T17:29:14.530Z,74.27
2019-02-23T17:31:44.632Z,63.87
2019-02-23T17:34:14.711Z,64.85
2019-02-23T17:36:44.795Z,66.53
2019-02-23T17:39:14.600Z,68.62
2019-02-23T17:41:44.464Z,72.95
2019-02-23T17:44:14.779Z,64.37
2019-02-23T17:46:44.392Z,66.20
2019-02-23T17:49:14.534Z,63.23
2019-02-23T17:51:44.555Z,60.33
2019-02-23T17:54:14.345Z,64.55
2019-02-23T17:56:44.343Z,70.10
2019-02-23T17:59:14.295Z,64.00
2019-02-23T18:01:44.242Z,57.93
2019-02-23T18:04:14.411Z,68.83
2019-02-23T18:06:44.258Z,67.85
2019-02-23T18:09:14.140Z,59.40
2019-02-23T18:11:44.529Z,67.67
2019-02-23T18:14:15.152Z,61.58
2019-02-23T18:16:44.691Z,63.55
2019-02-23T18:19:14.227Z,72.32
2019-02-23T18:21:44.011Z,94.28
2019-02-23T18:24:14.049Z,90.90
2019-02-23T18:26:43.966Z,126.10
2019-02-23T18:29:13.906Z,98.58
2019-02-23T18:31:44.263Z,94.17
2019-02-23T18:34:14.106Z,95.42
2019-02-23T18:36:43.963Z,78.75
2019-02-23T18:39:13.917Z,77.15
2019-02-23T18:41:44.070Z,75.05
2019-02-23T18:44:13.842Z,74.35
2019-02-23T18:46:43.851Z,80.12
2019-02-23T18:49:13.711Z,71.82
2019-02-23T18:51:43.919Z,75.03
2019-02-23T18:54:13.662Z,82.47
2019-02-23T18:56:45.663Z,72.22
2019-02-23T18:59:15.782Z,70.47
2019-02-23T19:01:45.331Z,75.32
2019-02-23T19:04:14.943Z,94.00
2019-02-23T19:06:44.656Z,99.00
2019-02-23T19:09:14.280Z,92.05
2019-02-23T19:11:43.956Z,91.32
2019-02-23T19:14:14.204Z,84.20
2019-02-23T19:16:44.089Z,93.30
2019-02-23T19:19:13.783Z,91.55
2019-02-23T19:21:46.186Z,90.77
2019-02-23T19:24:16.447Z,91.02
2019-02-23T19:26:46.005Z,95.03
2019-02-23T19:29:15.779Z,104.78
2019-02-23T19:31:45.327Z,95.28
2019-02-23T19:34:15.003Z,92.97
2019-02-23T19:36:44.648Z,95.55
2019-02-23T19:39:14.222Z,110.15
2019-02-23T19:41:45.226Z,109.63
2019-02-23T19:44:15.317Z,119.67
2019-02-23T19:46:47.938Z,118.08
2019-02-23T19:49:17.491Z,113.35
2019-02-23T19:51:47.237Z,115.37
2019-02-23T19:54:16.796Z,129.93
2019-02-23T19:56:47.025Z,154.70
2019-02-23T19:59:16.796Z,132.85
2019-02-23T20:01:46.472Z,126.30
2019-02-23T20:04:16.041Z,118.02
2019-02-23T20:06:45.872Z,117.85
2019-02-23T20:09:15.484Z,122.10
2019-02-23T20:11:46.896Z,123.00
2019-02-23T20:14:16.578Z,118.90
2019-02-23T20:16:46.300Z,117.55
2019-02-23T20:19:16.039Z,113.88
2019-02-23T20:22:05.667Z,112.88
2019-02-23T20:24:35.451Z,118.67
2019-02-23T20:27:05.005Z,111.57
2019-02-23T20:29:37.088Z,110.32
2019-02-23T20:32:06.819Z,111.90
2019-02-23T20:34:40.879Z,109.40
2019-02-23T20:37:10.550Z,106.63
2019-02-23T20:39:40.235Z,109.50
2019-02-23T20:42:09.932Z,109.30
2019-02-23T20:44:41.247Z,105.52
2019-02-23T20:47:11.222Z,101.85
2019-02-23T20:49:40.846Z,106.40
2019-02-23T20:52:10.496Z,104.58
2019-02-23T20:54:40.127Z,105.03
2019-02-23T20:57:13.945Z,105.97
2019-02-23T20:59:41.022Z,107.03
2019-02-23T21:02:11.374Z,113.57
2019-02-23T21:04:41.065Z,110.88
2019-02-23T21:07:11.293Z,108.95
2019-02-23T21:09:40.992Z,107.45
2019-02-23T21:12:10.747Z,106.78
2019-02-23T21:14:41.224Z,115.65
2019-02-23T21:17:10.941Z,112.37
2019-02-23T21:19:40.547Z,112.97
2019-02-23T21:22:10.126Z,111.95
2019-02-23T21:24:39.667Z,112.03
2019-02-23T21:27:12.956Z,113.10
2019-02-23T21:29:40.968Z,116.75
2019-02-23T21:32:10.519Z,108.30
2019-02-23T21:34:40.064Z,116.65
2019-02-23T21:37:11.095Z,110.70
2019-02-23T21:39:40.646Z,113.68
2019-02-23T21:42:10.261Z,107.95
2019-02-23T21:44:40.732Z,111.88
2019-02-23T21:47:11.433Z,112.22
2019-02-23T21:49:40.984Z,104.32
2019-02-23T21:52:10.648Z,106.97
2019-02-23T21:54:40.187Z,104.32
2019-02-23T21:57:09.806Z,108.42
2019-02-23T21:59:39.456Z,115.52
2019-02-23T22:02:09.124Z,115.50
2019-02-23T22:04:38.837Z,122.45
2019-02-23T22:07:18.157Z,115.45
2019-02-23T22:09:51.200Z,114.30
2019-02-23T22:12:22.948Z,121.13
2019-02-23T22:14:52.571Z,123.97
2019-02-23T22:17:22.115Z,119.85
2019-02-23T22:19:51.699Z,119.85
2019-02-23T22:22:21.391Z,116.10
2019-02-23T22:24:51.229Z,120.42
2019-02-23T22:27:20.900Z,121.60
2019-02-23T22:29:50.444Z,123.22
2019-02-23T22:32:21.020Z,129.72
2019-02-23T22:34:50.627Z,128.30
2019-02-23T22:37:20.239Z,136.07
2019-02-23T22:39:49.854Z,135.35
2019-02-23T22:42:19.432Z,127.15
2019-02-23T22:44:49.040Z,124.70
2019-02-23T22:47:18.660Z,134.07
2019-02-23T22:49:48.359Z,140.47
2019-02-23T22:52:18.331Z,136.12
2019-02-23T22:54:48.144Z,129.25
2019-02-23T22:57:18.389Z,141.92
2019-02-23T22:59:48.348Z,138.37
2019-02-23T23:02:18.188Z,118.90
2019-02-23T23:04:48.129Z,130.00
2019-02-23T23:07:18.440Z,124.90
2019-02-23T23:09:48.056Z,127.10
2019-02-23T23:12:18.503Z,128.82
2019-02-23T23:14:48.047Z,131.40
2019-02-23T23:17:17.790Z,134.32
2019-02-23T23:19:47.820Z,128.20
2019-02-23T23:22:17.703Z,133.72
2019-02-23T23:24:47.789Z,127.45
2019-02-23T23:27:18.077Z,140.18
2019-02-23T23:29:47.687Z,131.63
2019-02-23T23:32:17.568Z,125.30
2019-02-23T23:34:47.625Z,128.27
2019-02-23T23:37:17.420Z,127.22
2019-02-23T23:39:47.495Z,127.47
2019-02-23T23:42:17.739Z,143.10
2019-02-23T23:44:47.423Z,127.85
2019-02-23T23:47:17.399Z,128.18
2019-02-23T23:49:47.421Z,127.58
2019-02-23T23:52:17.218Z,125.80
2019-02-23T23:54:47.238Z,121.75
2019-02-23T23:57:17.430Z,126.10
2019-02-23T23:59:47.173Z,115.32
